sensor_id;sensor_type;location;lat;lon;timestamp;P1;durP1;ratioP1;P2;durP2;ratioP2
9117;SDS011;4594;50.994;7.126;2024-01-15T00:00:00;25.10;;;11.47;;
9117;SDS011;4594;50.994;7.126;2024-01-15T00:02:26;18.83;;;10.90;;
9117;SDS011;4594;50.994;7.126;2024-01-15T00:04:51;22.77;;;11.53;;
9117;SDS011;4594;50.994;7.126;2024-01-15T00:07:17;21.80;;;12.70;;
9117;SDS011;4594;50.994;7.126;2024-01-15T00:09:43;23.10;;;12.73;;
9117;SDS011;4594;50.994;7.126;2024-01-15T00:12:08;24.23;;;11.57;;
9117;SDS011;4594;50.994;7.126;2024-01-15T00:14:34;23.83;;;12.10;;
9117;SDS011;4594;50.994;7.126;2024-01-15T00:17:00;20.67;;;12.20;;
9117;SDS011;4594;50.994;7.126;2024-01-15T00:19:25;21.50;;;11.10;;
9117;SDS011;4594;50.994;7.126;2024-01-15T00:21:52;25.23;;;11.83;;
9117;SDS011;4594;50.994;7.126;2024-01-15T00:24:17;25.47;;;12.37;;
9117;SDS011;4594;50.994;7.126;2024-01-15T00:26:44;20.50;;;12.00;;
9117;SDS011;4594;50.994;7.126;2024-01-15T00:29:10;23.33;;;11.93;;
9117;SDS011;4594;50.994;7.126;2024-01-15T00:31:35;24.30;;;12.60;;
9117;SDS011;4594;50.994;7.126;2024-01-15T00:34:01;23.13;;;11.67;;
9117;SDS011;4594;50.994;7.126;2024-01-15T00:36:27;24.73;;;12.27;;
9117;SDS011;4594;50.994;7.126;2024-01-15T00:38:53;21.30;;;12.23;;
9117;SDS011;4594;50.994;7.126;2024-01-15T00:41:19;22.97;;;12.67;;
9117;SDS011;4594;50.994;7.126;2024-01-15T00:43:45;22.23;;;11.70;;
9117;SDS011;4594;50.994;7.126;2024-01-15T00:46:14;24.27;;;12.37;;
9117;SDS011;4594;50.994;7.126;2024-01-15T00:48:40;29.10;;;13.70;;
9117;SDS011;4594;50.994;7.126;2024-01-15T00:51:05;24.40;;;14.07;;
9117;SDS011;4594;50.994;7.126;2024-01-15T00:53:31;24.23;;;12.40;;
9117;SDS011;4594;50.994;7.126;2024-01-15T00:55:57;22.93;;;12.07;;
9117;SDS011;4594;50.994;7.126;2024-01-15T00:58:22;27.10;;;13.20;;
9117;SDS011;4594;50.994;7.126;2024-01-15T01:00:48;21.43;;;12.37;;
9117;SDS011;4594;50.994;7.126;2024-01-15T01:03:14;25.40;;;12.37;;
9117;SDS011;4594;50.994;7.126;2024-01-15T01:05:39;27.03;;;13.23;;
9117;SDS011;4594;50.994;7.126;2024-01-15T01:08:05;26.20;;;12.57;;
9117;SDS011;4594;50.994;7.126;2024-01-15T01:10:31;24.03;;;12.77;;
9117;SDS011;4594;50.994;7.126;2024-01-15T01:12:56;20.53;;;12.23;;
9117;SDS011;4594;50.994;7.126;2024-01-15T01:15:22;22.53;;;13.03;;
9117;SDS011;4594;50.994;7.126;2024-01-15T01:17:49;23.70;;;13.50;;
9117;SDS011;4594;50.994;7.126;2024-01-15T01:20:15;24.27;;;12.50;;
9117;SDS011;4594;50.994;7.126;2024-01-15T01:22:41;24.20;;;13.20;;
9117;SDS011;4594;50.994;7.126;2024-01-15T01:25:07;24.73;;;12.97;;
9117;SDS011;4594;50.994;7.126;2024-01-15T01:27:33;23.23;;;12.37;;
9117;SDS011;4594;50.994;7.126;2024-01-15T01:30:00;25.50;;;12.93;;
9117;SDS011;4594;50.994;7.126;2024-01-15T01:32:26;23.03;;;13.17;;
9117;SDS011;4594;50.994;7.126;2024-01-15T01:34:52;22.43;;;11.77;;
9117;SDS011;4594;50.994;7.126;2024-01-15T01:37:18;24.17;;;12.43;;
9117;SDS011;4594;50.994;7.126;2024-01-15T01:39:44;24.77;;;12.80;;
9117;SDS011;4594;50.994;7.126;2024-01-15T01:42:10;22.07;;;12.10;;
9117;SDS011;4594;50.994;7.126;2024-01-15T01:44:36;21.43;;;12.33;;
9117;SDS011;4594;50.994;7.126;2024-01-15T01:47:02;24.27;;;12.50;;
9117;SDS011;4594;50.994;7.126;2024-01-15T01:49:30;26.40;;;13.30;;
9117;SDS011;4594;50.994;7.126;2024-01-15T01:51:57;24.80;;;11.93;;
9117;SDS011;4594;50.994;7.126;2024-01-15T01:54:29;20.67;;;11.17;;
9117;SDS011;4594;50.994;7.126;2024-01-15T01:56:57;22.87;;;11.73;;
9117;SDS011;4594;50.994;7.126;2024-01-15T01:59:25;22.13;;;11.73;;
9117;SDS011;4594;50.994;7.126;2024-01-15T02:01:52;22.60;;;11.83;;
9117;SDS011;4594;50.994;7.126;2024-01-15T02:04:19;22.20;;;12.00;;
9117;SDS011;4594;50.994;7.126;2024-01-15T02:06:50;24.47;;;12.07;;
9117;SDS011;4594;50.994;7.126;2024-01-15T02:09:19;26.03;;;12.50;;
9117;SDS011;4594;50.994;7.126;2024-01-15T02:11:46;22.17;;;11.67;;
9117;SDS011;4594;50.994;7.126;2024-01-15T02:14:12;22.70;;;12.70;;
9117;SDS011;4594;50.994;7.126;2024-01-15T02:16:39;21.73;;;11.97;;
9117;SDS011;4594;50.994;7.126;2024-01-15T02:19:05;24.10;;;12.37;;
9117;SDS011;4594;50.994;7.126;2024-01-15T02:21:31;21.30;;;11.83;;
9117;SDS011;4594;50.994;7.126;2024-01-15T02:23:57;25.50;;;11.87;;
9117;SDS011;4594;50.994;7.126;2024-01-15T02:26:24;25.30;;;12.37;;
9117;SDS011;4594;50.994;7.126;2024-01-15T02:28:50;23.50;;;12.10;;
9117;SDS011;4594;50.994;7.126;2024-01-15T02:31:16;27.97;;;12.70;;
9117;SDS011;4594;50.994;7.126;2024-01-15T02:33:43;25.90;;;12.07;;
9117;SDS011;4594;50.994;7.126;2024-01-15T02:36:11;27.27;;;12.17;;
9117;SDS011;4594;50.994;7.126;2024-01-15T02:38:37;26.57;;;12.50;;
9117;SDS011;4594;50.994;7.126;2024-01-15T02:41:02;25.00;;;12.43;;
9117;SDS011;4594;50.994;7.126;2024-01-15T02:43:28;21.07;;;12.07;;
9117;SDS011;4594;50.994;7.126;2024-01-15T02:45:54;22.30;;;12.27;;
9117;SDS011;4594;50.994;7.126;2024-01-15T02:48:19;23.03;;;12.77;;
9117;SDS011;4594;50.994;7.126;2024-01-15T02:50:45;21.47;;;11.30;;
9117;SDS011;4594;50.994;7.126;2024-01-15T02:53:11;23.43;;;12.27;;
9117;SDS011;4594;50.994;7.126;2024-01-15T02:55:36;23.50;;;11.70;;
9117;SDS011;4594;50.994;7.126;2024-01-15T02:58:02;26.83;;;13.20;;
9117;SDS011;4594;50.994;7.126;2024-01-15T03:00:29;20.90;;;11.93;;
9117;SDS011;4594;50.994;7.126;2024-01-15T03:02:54;19.20;;;11.40;;
9117;SDS011;4594;50.994;7.126;2024-01-15T03:05:20;22.73;;;11.73;;
9117;SDS011;4594;50.994;7.126;2024-01-15T03:07:46;25.07;;;11.80;;
9117;SDS011;4594;50.994;7.126;2024-01-15T03:10:12;21.67;;;11.20;;
9117;SDS011;4594;50.994;7.126;2024-01-15T03:12:38;25.03;;;12.37;;
9117;SDS011;4594;50.994;7.126;2024-01-15T03:15:04;23.83;;;12.47;;
9117;SDS011;4594;50.994;7.126;2024-01-15T03:17:30;20.50;;;10.30;;
9117;SDS011;4594;50.994;7.126;2024-01-15T03:19:56;21.40;;;11.70;;
9117;SDS011;4594;50.994;7.126;2024-01-15T03:22:21;21.27;;;11.73;;
9117;SDS011;4594;50.994;7.126;2024-01-15T03:24:47;19.33;;;11.20;;
9117;SDS011;4594;50.994;7.126;2024-01-15T03:27:13;24.23;;;12.13;;
9117;SDS011;4594;50.994;7.126;2024-01-15T03:29:39;21.17;;;12.23;;
9117;SDS011;4594;50.994;7.126;2024-01-15T03:32:06;21.90;;;11.80;;
9117;SDS011;4594;50.994;7.126;2024-01-15T03:34:31;22.23;;;11.93;;
9117;SDS011;4594;50.994;7.126;2024-01-15T03:36:57;21.63;;;12.37;;
9117;SDS011;4594;50.994;7.126;2024-01-15T03:39:24;24.07;;;11.77;;
9117;SDS011;4594;50.994;7.126;2024-01-15T03:41:50;23.97;;;11.93;;
9117;SDS011;4594;50.994;7.126;2024-01-15T03:44:15;25.07;;;12.40;;
9117;SDS011;4594;50.994;7.126;2024-01-15T03:46:41;20.30;;;11.13;;
9117;SDS011;4594;50.994;7.126;2024-01-15T03:49:07;20.70;;;11.30;;
9117;SDS011;4594;50.994;7.126;2024-01-15T03:51:32;24.00;;;12.57;;
9117;SDS011;4594;50.994;7.126;2024-01-15T03:53:58;19.73;;;11.10;;
9117;SDS011;4594;50.994;7.126;2024-01-15T03:56:24;20.10;;;11.10;;
9117;SDS011;4594;50.994;7.126;2024-01-15T03:58:49;20.50;;;11.47;;
9117;SDS011;4594;50.994;7.126;2024-01-15T04:01:15;20.27;;;11.43;;
9117;SDS011;4594;50.994;7.126;2024-01-15T04:03:41;24.80;;;12.30;;
9117;SDS011;4594;50.994;7.126;2024-01-15T04:06:06;20.80;;;12.20;;
9117;SDS011;4594;50.994;7.126;2024-01-15T04:08:32;22.57;;;11.90;;
9117;SDS011;4594;50.994;7.126;2024-01-15T04:10:58;21.00;;;11.30;;
9117;SDS011;4594;50.994;7.126;2024-01-15T04:13:23;20.80;;;11.03;;
9117;SDS011;4594;50.994;7.126;2024-01-15T04:15:50;19.10;;;11.50;;
9117;SDS011;4594;50.994;7.126;2024-01-15T04:18:16;20.87;;;11.83;;
9117;SDS011;4594;50.994;7.126;2024-01-15T04:20:42;19.40;;;11.43;;
9117;SDS011;4594;50.994;7.126;2024-01-15T04:23:08;23.10;;;11.77;;
9117;SDS011;4594;50.994;7.126;2024-01-15T04:25:34;18.10;;;10.37;;
9117;SDS011;4594;50.994;7.126;2024-01-15T04:28:00;20.23;;;11.63;;
9117;SDS011;4594;50.994;7.126;2024-01-15T04:30:26;21.27;;;11.53;;
9117;SDS011;4594;50.994;7.126;2024-01-15T04:32:51;19.20;;;10.97;;
9117;SDS011;4594;50.994;7.126;2024-01-15T04:35:17;20.33;;;11.80;;
9117;SDS011;4594;50.994;7.126;2024-01-15T04:37:43;22.50;;;12.27;;
9117;SDS011;4594;50.994;7.126;2024-01-15T04:40:08;19.50;;;11.43;;
9117;SDS011;4594;50.994;7.126;2024-01-15T04:42:35;20.13;;;11.07;;
9117;SDS011;4594;50.994;7.126;2024-01-15T04:45:00;17.23;;;10.30;;
9117;SDS011;4594;50.994;7.126;2024-01-15T04:47:26;19.93;;;10.93;;
9117;SDS011;4594;50.994;7.126;2024-01-15T04:49:52;20.27;;;11.40;;
9117;SDS011;4594;50.994;7.126;2024-01-15T04:52:17;16.20;;;10.37;;
9117;SDS011;4594;50.994;7.126;2024-01-15T04:54:43;20.00;;;11.67;;
9117;SDS011;4594;50.994;7.126;2024-01-15T04:57:09;17.63;;;10.43;;
9117;SDS011;4594;50.994;7.126;2024-01-15T04:59:35;20.53;;;11.27;;
9117;SDS011;4594;50.994;7.126;2024-01-15T05:02:00;19.70;;;11.47;;
9117;SDS011;4594;50.994;7.126;2024-01-15T05:04:26;21.83;;;11.50;;
9117;SDS011;4594;50.994;7.126;2024-01-15T05:06:52;20.83;;;10.83;;
9117;SDS011;4594;50.994;7.126;2024-01-15T05:09:19;19.07;;;10.57;;
9117;SDS011;4594;50.994;7.126;2024-01-15T05:11:44;20.53;;;10.43;;
9117;SDS011;4594;50.994;7.126;2024-01-15T05:14:10;23.97;;;11.07;;
9117;SDS011;4594;50.994;7.126;2024-01-15T05:16:38;21.00;;;11.63;;
9117;SDS011;4594;50.994;7.126;2024-01-15T05:19:05;19.63;;;11.07;;
9117;SDS011;4594;50.994;7.126;2024-01-15T05:21:33;17.17;;;10.67;;
9117;SDS011;4594;50.994;7.126;2024-01-15T05:23:58;15.87;;;9.57;;
9117;SDS011;4594;50.994;7.126;2024-01-15T05:26:24;18.33;;;11.03;;
9117;SDS011;4594;50.994;7.126;2024-01-15T05:28:50;21.77;;;10.70;;
9117;SDS011;4594;50.994;7.126;2024-01-15T05:31:15;21.67;;;11.20;;
9117;SDS011;4594;50.994;7.126;2024-01-15T05:33:41;21.60;;;11.23;;
9117;SDS011;4594;50.994;7.126;2024-01-15T05:36:07;19.37;;;10.57;;
9117;SDS011;4594;50.994;7.126;2024-01-15T05:38:32;18.93;;;10.60;;
9117;SDS011;4594;50.994;7.126;2024-01-15T05:40:58;17.93;;;9.53;;
9117;SDS011;4594;50.994;7.126;2024-01-15T05:43:24;18.77;;;10.13;;
9117;SDS011;4594;50.994;7.126;2024-01-15T05:45:49;15.17;;;9.50;;
9117;SDS011;4594;50.994;7.126;2024-01-15T05:48:15;15.27;;;9.77;;
9117;SDS011;4594;50.994;7.126;2024-01-15T05:50:41;19.97;;;10.53;;
9117;SDS011;4594;50.994;7.126;2024-01-15T05:53:07;16.43;;;9.23;;
9117;SDS011;4594;50.994;7.126;2024-01-15T05:55:32;13.73;;;9.30;;
9117;SDS011;4594;50.994;7.126;2024-01-15T05:58:00;16.43;;;8.53;;
9117;SDS011;4594;50.994;7.126;2024-01-15T06:00:25;16.13;;;8.93;;
9117;SDS011;4594;50.994;7.126;2024-01-15T06:02:51;13.60;;;8.57;;
9117;SDS011;4594;50.994;7.126;2024-01-15T06:05:17;13.33;;;8.30;;
9117;SDS011;4594;50.994;7.126;2024-01-15T06:07:43;13.30;;;8.93;;
9117;SDS011;4594;50.994;7.126;2024-01-15T06:10:09;17.90;;;8.60;;
9117;SDS011;4594;50.994;7.126;2024-01-15T06:12:34;12.40;;;8.17;;
9117;SDS011;4594;50.994;7.126;2024-01-15T06:15:00;14.07;;;7.93;;
9117;SDS011;4594;50.994;7.126;2024-01-15T06:17:26;9.63;;;7.37;;
9117;SDS011;4594;50.994;7.126;2024-01-15T06:19:51;12.30;;;7.37;;
9117;SDS011;4594;50.994;7.126;2024-01-15T06:22:17;12.03;;;7.70;;
9117;SDS011;4594;50.994;7.126;2024-01-15T06:24:43;10.97;;;6.63;;
9117;SDS011;4594;50.994;7.126;2024-01-15T06:27:09;9.00;;;6.67;;
9117;SDS011;4594;50.994;7.126;2024-01-15T06:29:36;11.00;;;6.97;;
9117;SDS011;4594;50.994;7.126;2024-01-15T06:32:03;9.67;;;6.90;;
9117;SDS011;4594;50.994;7.126;2024-01-15T06:34:29;7.27;;;6.20;;
9117;SDS011;4594;50.994;7.126;2024-01-15T06:36:55;8.40;;;6.37;;
9117;SDS011;4594;50.994;7.126;2024-01-15T06:39:21;10.70;;;7.00;;
9117;SDS011;4594;50.994;7.126;2024-01-15T06:41:47;15.30;;;7.77;;
9117;SDS011;4594;50.994;7.126;2024-01-15T06:44:12;11.87;;;7.63;;
9117;SDS011;4594;50.994;7.126;2024-01-15T06:46:42;11.93;;;7.93;;
9117;SDS011;4594;50.994;7.126;2024-01-15T06:49:08;9.30;;;6.60;;
9117;SDS011;4594;50.994;7.126;2024-01-15T06:51:35;15.17;;;8.80;;
9117;SDS011;4594;50.994;7.126;2024-01-15T06:54:01;11.63;;;8.00;;
9117;SDS011;4594;50.994;7.126;2024-01-15T06:56:27;11.77;;;8.00;;
9117;SDS011;4594;50.994;7.126;2024-01-15T06:58:52;10.90;;;7.90;;
9117;SDS011;4594;50.994;7.126;2024-01-15T07:01:18;12.60;;;8.17;;
9117;SDS011;4594;50.994;7.126;2024-01-15T07:03:44;13.13;;;8.20;;
9117;SDS011;4594;50.994;7.126;2024-01-15T07:06:10;12.70;;;7.57;;
9117;SDS011;4594;50.994;7.126;2024-01-15T07:08:37;11.23;;;7.70;;
9117;SDS011;4594;50.994;7.126;2024-01-15T07:11:04;13.73;;;8.23;;
9117;SDS011;4594;50.994;7.126;2024-01-15T07:13:31;9.77;;;7.53;;
9117;SDS011;4594;50.994;7.126;2024-01-15T07:15:57;12.43;;;8.50;;
9117;SDS011;4594;50.994;7.126;2024-01-15T07:18:24;9.73;;;7.43;;
9117;SDS011;4594;50.994;7.126;2024-01-15T07:20:50;14.50;;;8.70;;
9117;SDS011;4594;50.994;7.126;2024-01-15T07:23:16;9.97;;;7.87;;
9117;SDS011;4594;50.994;7.126;2024-01-15T07:25:42;10.50;;;7.87;;
9117;SDS011;4594;50.994;7.126;2024-01-15T07:28:08;11.30;;;8.10;;
9117;SDS011;4594;50.994;7.126;2024-01-15T07:30:34;12.40;;;8.67;;
9117;SDS011;4594;50.994;7.126;2024-01-15T07:33:00;9.93;;;7.97;;
9117;SDS011;4594;50.994;7.126;2024-01-15T07:35:26;11.50;;;7.67;;
9117;SDS011;4594;50.994;7.126;2024-01-15T07:37:52;13.60;;;8.83;;
9117;SDS011;4594;50.994;7.126;2024-01-15T07:40:17;11.30;;;8.53;;
9117;SDS011;4594;50.994;7.126;2024-01-15T07:42:43;12.90;;;8.53;;
9117;SDS011;4594;50.994;7.126;2024-01-15T07:45:10;12.83;;;8.37;;
9117;SDS011;4594;50.994;7.126;2024-01-15T07:47:36;12.40;;;8.30;;
9117;SDS011;4594;50.994;7.126;2024-01-15T07:50:03;15.13;;;9.47;;
9117;SDS011;4594;50.994;7.126;2024-01-15T07:52:29;11.33;;;8.73;;
9117;SDS011;4594;50.994;7.126;2024-01-15T07:54:55;11.63;;;7.90;;
9117;SDS011;4594;50.994;7.126;2024-01-15T07:57:21;12.53;;;8.97;;
9117;SDS011;4594;50.994;7.126;2024-01-15T07:59:48;11.03;;;8.40;;
9117;SDS011;4594;50.994;7.126;2024-01-15T08:02:13;11.93;;;9.10;;
9117;SDS011;4594;50.994;7.126;2024-01-15T08:04:40;12.97;;;8.67;;
9117;SDS011;4594;50.994;7.126;2024-01-15T08:07:05;14.23;;;8.73;;
9117;SDS011;4594;50.994;7.126;2024-01-15T08:09:34;14.07;;;8.87;;
9117;SDS011;4594;50.994;7.126;2024-01-15T08:12:00;12.50;;;9.33;;
9117;SDS011;4594;50.994;7.126;2024-01-15T08:14:26;13.63;;;9.23;;
9117;SDS011;4594;50.994;7.126;2024-01-15T08:16:51;16.60;;;8.73;;
9117;SDS011;4594;50.994;7.126;2024-01-15T08:19:17;12.07;;;8.40;;
9117;SDS011;4594;50.994;7.126;2024-01-15T08:21:44;13.87;;;8.70;;
9117;SDS011;4594;50.994;7.126;2024-01-15T08:24:10;12.77;;;8.70;;
9117;SDS011;4594;50.994;7.126;2024-01-15T08:26:36;10.87;;;8.60;;
9117;SDS011;4594;50.994;7.126;2024-01-15T08:29:02;13.57;;;9.07;;
9117;SDS011;4594;50.994;7.126;2024-01-15T08:31:28;15.57;;;9.60;;
9117;SDS011;4594;50.994;7.126;2024-01-15T08:33:54;13.33;;;8.73;;
9117;SDS011;4594;50.994;7.126;2024-01-15T08:36:20;18.73;;;9.87;;
9117;SDS011;4594;50.994;7.126;2024-01-15T08:38:47;18.30;;;9.30;;
9117;SDS011;4594;50.994;7.126;2024-01-15T08:41:13;16.13;;;10.70;;
9117;SDS011;4594;50.994;7.126;2024-01-15T08:43:39;15.60;;;9.93;;
9117;SDS011;4594;50.994;7.126;2024-01-15T08:46:04;13.80;;;10.17;;
9117;SDS011;4594;50.994;7.126;2024-01-15T08:48:30;15.23;;;10.63;;
9117;SDS011;4594;50.994;7.126;2024-01-15T08:50:56;18.73;;;10.70;;
9117;SDS011;4594;50.994;7.126;2024-01-15T08:53:22;14.77;;;10.30;;
9117;SDS011;4594;50.994;7.126;2024-01-15T08:55:48;15.87;;;10.13;;
9117;SDS011;4594;50.994;7.126;2024-01-15T08:58:14;19.77;;;10.43;;
9117;SDS011;4594;50.994;7.126;2024-01-15T09:00:40;14.53;;;9.83;;
9117;SDS011;4594;50.994;7.126;2024-01-15T09:03:06;14.03;;;9.40;;
9117;SDS011;4594;50.994;7.126;2024-01-15T09:05:33;15.30;;;9.37;;
9117;SDS011;4594;50.994;7.126;2024-01-15T09:07:59;12.77;;;9.17;;
9117;SDS011;4594;50.994;7.126;2024-01-15T09:10:25;13.87;;;9.33;;
9117;SDS011;4594;50.994;7.126;2024-01-15T09:12:51;12.87;;;9.40;;
9117;SDS011;4594;50.994;7.126;2024-01-15T09:15:17;15.80;;;9.30;;
9117;SDS011;4594;50.994;7.126;2024-01-15T09:17:43;12.37;;;9.33;;
9117;SDS011;4594;50.994;7.126;2024-01-15T09:20:10;14.20;;;9.17;;
9117;SDS011;4594;50.994;7.126;2024-01-15T09:22:39;13.13;;;9.50;;
9117;SDS011;4594;50.994;7.126;2024-01-15T09:25:08;16.47;;;9.00;;
9117;SDS011;4594;50.994;7.126;2024-01-15T09:27:36;12.27;;;8.93;;
9117;SDS011;4594;50.994;7.126;2024-01-15T09:30:03;13.73;;;9.50;;
9117;SDS011;4594;50.994;7.126;2024-01-15T09:32:30;14.80;;;9.57;;
9117;SDS011;4594;50.994;7.126;2024-01-15T09:34:56;12.70;;;9.53;;
9117;SDS011;4594;50.994;7.126;2024-01-15T09:37:21;14.47;;;9.30;;
9117;SDS011;4594;50.994;7.126;2024-01-15T09:39:48;13.13;;;9.20;;
9117;SDS011;4594;50.994;7.126;2024-01-15T09:42:15;15.07;;;8.87;;
9117;SDS011;4594;50.994;7.126;2024-01-15T09:44:41;14.00;;;9.30;;
9117;SDS011;4594;50.994;7.126;2024-01-15T09:47:07;14.63;;;9.60;;
9117;SDS011;4594;50.994;7.126;2024-01-15T09:49:34;14.00;;;8.90;;
9117;SDS011;4594;50.994;7.126;2024-01-15T09:51:59;12.40;;;8.33;;
9117;SDS011;4594;50.994;7.126;2024-01-15T09:54:27;9.53;;;7.43;;
9117;SDS011;4594;50.994;7.126;2024-01-15T09:56:53;11.73;;;8.23;;
9117;SDS011;4594;50.994;7.126;2024-01-15T09:59:20;9.43;;;7.90;;
9117;SDS011;4594;50.994;7.126;2024-01-15T10:01:50;10.13;;;7.50;;
9117;SDS011;4594;50.994;7.126;2024-01-15T10:04:16;7.53;;;6.73;;
9117;SDS011;4594;50.994;7.126;2024-01-15T10:06:43;8.50;;;6.73;;
9117;SDS011;4594;50.994;7.126;2024-01-15T10:09:12;8.60;;;6.60;;
9117;SDS011;4594;50.994;7.126;2024-01-15T10:11:39;7.13;;;6.00;;
9117;SDS011;4594;50.994;7.126;2024-01-15T10:14:10;7.40;;;6.33;;
9117;SDS011;4594;50.994;7.126;2024-01-15T10:16:40;6.80;;;6.07;;
9117;SDS011;4594;50.994;7.126;2024-01-15T10:19:07;7.37;;;5.60;;
9117;SDS011;4594;50.994;7.126;2024-01-15T10:21:33;6.53;;;5.90;;
9117;SDS011;4594;50.994;7.126;2024-01-15T10:24:00;6.90;;;5.80;;
9117;SDS011;4594;50.994;7.126;2024-01-15T10:26:30;6.93;;;6.13;;
9117;SDS011;4594;50.994;7.126;2024-01-15T10:29:00;6.10;;;5.50;;
9117;SDS011;4594;50.994;7.126;2024-01-15T10:31:26;6.43;;;5.30;;
9117;SDS011;4594;50.994;7.126;2024-01-15T10:33:53;5.60;;;5.10;;
9117;SDS011;4594;50.994;7.126;2024-01-15T10:36:19;5.80;;;5.17;;
9117;SDS011;4594;50.994;7.126;2024-01-15T10:38:45;7.37;;;5.60;;
9117;SDS011;4594;50.994;7.126;2024-01-15T10:41:11;5.20;;;4.80;;
9117;SDS011;4594;50.994;7.126;2024-01-15T10:43:37;5.63;;;5.20;;
9117;SDS011;4594;50.994;7.126;2024-01-15T10:46:06;5.37;;;4.87;;
9117;SDS011;4594;50.994;7.126;2024-01-15T10:48:32;5.10;;;4.70;;
9117;SDS011;4594;50.994;7.126;2024-01-15T10:51:00;4.87;;;4.40;;
9117;SDS011;4594;50.994;7.126;2024-01-15T10:53:35;5.23;;;4.73;;
9117;SDS011;4594;50.994;7.126;2024-01-15T10:56:07;4.63;;;4.33;;
9117;SDS011;4594;50.994;7.126;2024-01-15T10:58:37;4.20;;;4.00;;
9117;SDS011;4594;50.994;7.126;2024-01-15T11:01:05;4.67;;;4.37;;
9117;SDS011;4594;50.994;7.126;2024-01-15T11:03:31;4.70;;;4.10;;
9117;SDS011;4594;50.994;7.126;2024-01-15T11:05:59;4.77;;;4.47;;
9117;SDS011;4594;50.994;7.126;2024-01-15T11:08:25;4.50;;;4.20;;
9117;SDS011;4594;50.994;7.126;2024-01-15T11:10:51;5.53;;;5.10;;
9117;SDS011;4594;50.994;7.126;2024-01-15T11:13:21;4.67;;;4.37;;
9117;SDS011;4594;50.994;7.126;2024-01-15T11:16:07;4.47;;;4.17;;
9117;SDS011;4594;50.994;7.126;2024-01-15T11:18:40;3.80;;;3.60;;
9117;SDS011;4594;50.994;7.126;2024-01-15T11:21:27;3.83;;;3.63;;
9117;SDS011;4594;50.994;7.126;2024-01-15T11:23:56;3.80;;;3.50;;
9117;SDS011;4594;50.994;7.126;2024-01-15T11:32:10;4.20;;;3.90;;
9117;SDS011;4594;50.994;7.126;2024-01-15T11:37:26;3.30;;;3.20;;
9117;SDS011;4594;50.994;7.126;2024-01-15T11:40:19;3.23;;;3.07;;
9117;SDS011;4594;50.994;7.126;2024-01-15T11:43:03;3.67;;;3.40;;
9117;SDS011;4594;50.994;7.126;2024-01-15T11:45:31;3.10;;;3.00;;
9117;SDS011;4594;50.994;7.126;2024-01-15T11:50:33;3.30;;;3.20;;
9117;SDS011;4594;50.994;7.126;2024-01-15T11:53:00;3.10;;;3.00;;
9117;SDS011;4594;50.994;7.126;2024-01-15T11:55:33;3.33;;;3.13;;
9117;SDS011;4594;50.994;7.126;2024-01-15T11:58:03;3.17;;;3.07;;
9117;SDS011;4594;50.994;7.126;2024-01-15T12:00:40;3.17;;;3.03;;
9117;SDS011;4594;50.994;7.126;2024-01-15T12:03:10;2.73;;;2.63;;
9117;SDS011;4594;50.994;7.126;2024-01-15T12:05:39;2.90;;;2.70;;
9117;SDS011;4594;50.994;7.126;2024-01-15T12:08:07;2.87;;;2.77;;
9117;SDS011;4594;50.994;7.126;2024-01-15T12:10:36;2.97;;;2.87;;
9117;SDS011;4594;50.994;7.126;2024-01-15T12:13:10;2.90;;;2.70;;
9117;SDS011;4594;50.994;7.126;2024-01-15T12:15:35;2.80;;;2.70;;
9117;SDS011;4594;50.994;7.126;2024-01-15T12:18:02;3.93;;;3.60;;
9117;SDS011;4594;50.994;7.126;2024-01-15T12:20:31;3.80;;;3.40;;
9117;SDS011;4594;50.994;7.126;2024-01-15T12:22:57;3.67;;;3.47;;
9117;SDS011;4594;50.994;7.126;2024-01-15T12:25:24;3.63;;;3.43;;
9117;SDS011;4594;50.994;7.126;2024-01-15T12:27:52;4.00;;;3.70;;
9117;SDS011;4594;50.994;7.126;2024-01-15T12:30:18;4.63;;;4.23;;
9117;SDS011;4594;50.994;7.126;2024-01-15T12:32:45;3.77;;;3.50;;
9117;SDS011;4594;50.994;7.126;2024-01-15T12:35:12;4.40;;;4.10;;
9117;SDS011;4594;50.994;7.126;2024-01-15T12:37:39;4.57;;;4.23;;
9117;SDS011;4594;50.994;7.126;2024-01-15T12:40:07;4.20;;;3.87;;
9117;SDS011;4594;50.994;7.126;2024-01-15T12:42:41;4.53;;;4.23;;
9117;SDS011;4594;50.994;7.126;2024-01-15T12:45:07;7.23;;;4.53;;
9117;SDS011;4594;50.994;7.126;2024-01-15T12:47:36;4.83;;;4.37;;
9117;SDS011;4594;50.994;7.126;2024-01-15T12:50:04;5.37;;;4.30;;
9117;SDS011;4594;50.994;7.126;2024-01-15T12:52:33;4.57;;;4.17;;
9117;SDS011;4594;50.994;7.126;2024-01-15T12:54:59;4.60;;;4.27;;
9117;SDS011;4594;50.994;7.126;2024-01-15T12:57:25;5.07;;;4.67;;
9117;SDS011;4594;50.994;7.126;2024-01-15T12:59:50;7.20;;;4.20;;
9117;SDS011;4594;50.994;7.126;2024-01-15T13:02:18;8.93;;;4.63;;
9117;SDS011;4594;50.994;7.126;2024-01-15T13:04:44;5.60;;;5.07;;
9117;SDS011;4594;50.994;7.126;2024-01-15T13:07:10;6.47;;;4.23;;
9117;SDS011;4594;50.994;7.126;2024-01-15T13:09:35;8.27;;;5.00;;
9117;SDS011;4594;50.994;7.126;2024-01-15T13:12:01;5.80;;;4.20;;
9117;SDS011;4594;50.994;7.126;2024-01-15T13:14:28;8.10;;;4.40;;
9117;SDS011;4594;50.994;7.126;2024-01-15T13:16:53;6.27;;;4.20;;
9117;SDS011;4594;50.994;7.126;2024-01-15T13:19:21;4.33;;;4.03;;
9117;SDS011;4594;50.994;7.126;2024-01-15T13:21:48;5.97;;;4.23;;
9117;SDS011;4594;50.994;7.126;2024-01-15T13:24:15;4.43;;;3.43;;
9117;SDS011;4594;50.994;7.126;2024-01-15T13:26:40;4.03;;;3.60;;
9117;SDS011;4594;50.994;7.126;2024-01-15T13:29:06;3.67;;;3.37;;
9117;SDS011;4594;50.994;7.126;2024-01-15T13:31:32;3.93;;;3.10;;
9117;SDS011;4594;50.994;7.126;2024-01-15T13:33:58;4.10;;;3.47;;
9117;SDS011;4594;50.994;7.126;2024-01-15T13:36:25;4.83;;;3.47;;
9117;SDS011;4594;50.994;7.126;2024-01-15T13:38:52;3.37;;;3.13;;
9117;SDS011;4594;50.994;7.126;2024-01-15T13:41:19;4.67;;;3.50;;
9117;SDS011;4594;50.994;7.126;2024-01-15T13:43:49;4.33;;;3.07;;
9117;SDS011;4594;50.994;7.126;2024-01-15T13:46:17;3.40;;;3.20;;
9117;SDS011;4594;50.994;7.126;2024-01-15T13:48:44;5.27;;;3.40;;
9117;SDS011;4594;50.994;7.126;2024-01-15T13:51:09;3.93;;;3.10;;
9117;SDS011;4594;50.994;7.126;2024-01-15T13:53:37;3.53;;;3.23;;
9117;SDS011;4594;50.994;7.126;2024-01-15T13:56:03;4.77;;;3.03;;
9117;SDS011;4594;50.994;7.126;2024-01-15T13:58:30;5.63;;;3.57;;
9117;SDS011;4594;50.994;7.126;2024-01-15T14:00:57;3.40;;;3.10;;
9117;SDS011;4594;50.994;7.126;2024-01-15T14:03:24;4.10;;;3.03;;
9117;SDS011;4594;50.994;7.126;2024-01-15T14:05:50;3.80;;;3.40;;
9117;SDS011;4594;50.994;7.126;2024-01-15T14:08:17;3.90;;;3.60;;
9117;SDS011;4594;50.994;7.126;2024-01-15T14:10:43;8.40;;;2.87;;
9117;SDS011;4594;50.994;7.126;2024-01-15T14:13:08;4.17;;;2.97;;
9117;SDS011;4594;50.994;7.126;2024-01-15T14:15:34;3.40;;;2.63;;
9117;SDS011;4594;50.994;7.126;2024-01-15T14:18:00;3.20;;;2.87;;
9117;SDS011;4594;50.994;7.126;2024-01-15T14:20:26;3.13;;;2.90;;
9117;SDS011;4594;50.994;7.126;2024-01-15T14:22:52;2.80;;;2.63;;
9117;SDS011;4594;50.994;7.126;2024-01-15T14:25:19;3.20;;;3.10;;
9117;SDS011;4594;50.994;7.126;2024-01-15T14:27:45;2.73;;;2.57;;
9117;SDS011;4594;50.994;7.126;2024-01-15T14:30:12;8.07;;;4.70;;
9117;SDS011;4594;50.994;7.126;2024-01-15T14:32:40;8.47;;;6.07;;
9117;SDS011;4594;50.994;7.126;2024-01-15T14:35:07;3.83;;;3.53;;
9117;SDS011;4594;50.994;7.126;2024-01-15T14:37:36;3.53;;;3.10;;
9117;SDS011;4594;50.994;7.126;2024-01-15T14:40:05;3.47;;;3.17;;
9117;SDS011;4594;50.994;7.126;2024-01-15T14:42:40;2.73;;;2.53;;
9117;SDS011;4594;50.994;7.126;2024-01-15T14:45:07;2.90;;;2.80;;
9117;SDS011;4594;50.994;7.126;2024-01-15T14:47:37;3.00;;;2.90;;
9117;SDS011;4594;50.994;7.126;2024-01-15T14:50:04;2.90;;;2.80;;
9117;SDS011;4594;50.994;7.126;2024-01-15T14:52:32;3.17;;;2.90;;
9117;SDS011;4594;50.994;7.126;2024-01-15T14:54:58;2.77;;;2.67;;
9117;SDS011;4594;50.994;7.126;2024-01-15T14:57:24;3.40;;;3.20;;
9117;SDS011;4594;50.994;7.126;2024-01-15T14:59:50;3.10;;;3.00;;
9117;SDS011;4594;50.994;7.126;2024-01-15T15:02:16;3.30;;;3.10;;
9117;SDS011;4594;50.994;7.126;2024-01-15T15:04:42;3.33;;;3.13;;
9117;SDS011;4594;50.994;7.126;2024-01-15T15:07:08;3.30;;;3.10;;